Time;durP1;ratioP1;P1;durP2;ratioP2;P2;SDS_P1;SDS_P2;PMS_P1;PMS_P2;Temp;Humidity;BMP_temperature;BMP_pressure;BME280_temperature;BME280_humidity;BME280_pressure;Samples;Min_cycle;Max_cycle;Signal;HPM_P1;HPM_P2
2023/09/25 15:18:36;;;;;;;22.90;4.15;;;27.90;40.50;;;;;;5088904;27;20503;-75
2023/09/25 15:21:04;;;;;;;16.25;3.55;;;28.90;40.00;;;;;;5084232;28;20407;-75
2023/09/25 15:23:32;;;;;;;16.38;3.22;;;28.00;40.30;;;;;;5063852;28;20036;-73
2023/09/25 15:25:58;;;;;;;14.52;3.67;;;26.40;43.70;;;;;;5077797;28;20042;-74
2023/09/25 15:28:23;;;;;;;20.23;4.13;;;26.40;44.40;;;;;;5062054;28;20036;-74
2023/09/25 15:30:49;;;;;;;18.33;5.00;;;26.40;43.90;;;;;;5073273;28;20060;-74
2023/09/25 15:33:15;;;;;;;19.70;4.20;;;26.40;44.30;;;;;;5064691;28;20021;-74
2023/09/25 15:35:40;;;;;;;19.40;3.95;;;27.10;42.80;;;;;;5080342;28;20063;-74
2023/09/25 15:38:06;;;;;;;18.30;3.70;;;27.70;42.10;;;;;;5068363;28;20028;-74
2023/09/25 15:40:31;;;;;;;17.00;3.78;;;28.10;41.80;;;;;;5074678;28;20039;-73
2023/09/25 15:42:57;;;;;;;19.92;3.90;;;28.00;41.00;;;;;;5065019;28;20063;-72
2023/09/25 15:45:23;;;;;;;15.63;3.10;;;28.10;40.50;;;;;;5072289;28;20028;-72
2023/09/25 15:47:49;;;;;;;18.52;3.92;;;28.70;40.00;;;;;;5078626;28;20659;-74
2023/09/25 15:50:15;;;;;;;20.70;3.92;;;28.80;39.40;;;;;;5059794;28;20035;-72
2023/09/25 15:52:40;;;;;;;18.90;3.92;;;28.40;40.30;;;;;;5078295;28;20051;-71
2023/09/25 15:55:06;;;;;;;18.75;3.55;;;28.00;41.00;;;;;;5058596;28;20036;-72
2023/09/25 15:57:32;;;;;;;18.42;3.92;;;28.70;39.50;;;;;;5069934;28;20024;-74
2023/09/25 15:59:57;;;;;;;17.70;4.28;;;28.60;38.60;;;;;;5068893;28;20039;-73
2023/09/25 16:02:23;;;;;;;10.23;3.03;;;27.30;41.40;;;;;;5069521;28;20031;-71
2023/09/25 16:04:49;;;;;;;17.17;3.67;;;26.80;43.40;;;;;;5069373;28;20036;-72
2023/09/25 16:07:14;;;;;;;14.85;3.85;;;26.80;43.40;;;;;;5077380;28;20078;-71
2023/09/25 16:09:40;;;;;;;18.75;4.50;;;26.70;43.90;;;;;;5060999;28;20040;-70
2023/09/25 16:12:06;;;;;;;17.52;3.67;;;26.60;44.30;;;;;;5079416;28;20081;-73
2023/09/25 16:14:31;;;;;;;13.25;3.67;;;26.60;44.00;;;;;;5066233;28;20525;-71
2023/09/25 16:16:57;;;;;;;14.85;3.85;;;27.60;42.70;;;;;;5071718;28;20091;-71
2023/09/25 16:19:23;;;;;;;24.52;4.55;;;27.00;43.40;;;;;;5067795;28;20063;-72
2023/09/25 16:21:49;;;;;;;24.40;4.70;;;26.00;44.30;;;;;;5080341;28;20047;-70
2023/09/25 16:24:15;;;;;;;18.98;4.13;;;24.80;47.30;;;;;;5075115;28;20039;-71
2023/09/25 16:26:41;;;;;;;29.67;4.70;;;24.10;49.90;;;;;;5073002;28;20403;-72
2023/09/25 16:29:07;;;;;;;23.73;4.22;;;23.10;53.20;;;;;;5067440;28;20080;-73
2023/09/25 16:31:32;;;;;;;20.30;3.80;;;22.10;56.60;;;;;;5055886;28;20024;-71
2023/09/25 16:33:58;;;;;;;23.55;3.80;;;21.50;59.20;;;;;;5071182;28;20032;-72
2023/09/25 16:36:23;;;;;;;25.90;4.10;;;21.10;61.00;;;;;;5053613;28;20403;-73
2023/09/25 16:38:50;;;;;;;21.48;4.07;;;20.80;62.60;;;;;;5066297;28;20158;-72
2023/09/25 16:41:16;;;;;;;20.17;4.07;;;20.50;63.40;;;;;;5055136;28;20036;-73
2023/09/25 16:43:42;;;;;;;24.17;3.92;;;20.20;63.50;;;;;;5062812;28;20553;-72
2023/09/25 16:46:07;;;;;;;21.77;4.18;;;20.00;64.10;;;;;;5052520;28;20477;-73
2023/09/25 16:48:33;;;;;;;28.27;4.65;;;19.90;65.10;;;;;;5066049;28;20124;-73
2023/09/25 16:50:59;;;;;;;44.53;4.93;;;19.70;66.70;;;;;;5055943;28;20058;-73
2023/09/25 16:53:25;;;;;;;18.15;4.30;;;19.60;66.80;;;;;;5069815;28;20467;-73
2023/09/25 16:55:51;;;;;;;23.70;3.95;;;19.50;67.10;;;;;;5056010;28;20637;-73
2023/09/25 16:58:18;;;;;;;32.70;4.95;;;19.30;68.00;;;;;;5070356;28;20040;-73
2023/09/25 17:00:44;;;;;;;27.33;4.75;;;19.30;68.10;;;;;;5057831;28;20032;-73
2023/09/25 17:03:13;;;;;;;20.25;4.72;;;19.40;68.60;;;;;;5063951;28;20403;-73
2023/09/25 17:05:39;;;;;;;23.75;3.92;;;19.30;68.60;;;;;;5066980;28;20029;-73
2023/09/25 17:08:08;;;;;;;32.03;4.05;;;19.40;68.80;;;;;;5065411;28;20127;-73
2023/09/25 17:10:34;;;;;;;25.63;4.20;;;19.30;69.20;;;;;;5066957;28;20040;-73
2023/09/25 17:13:00;;;;;;;19.98;4.47;;;19.20;69.20;;;;;;5056029;28;20036;-73
2023/09/25 17:15:35;;;;;;;19.83;3.85;;;19.20;69.50;;;;;;5058111;28;20040;-73
2023/09/25 17:18:00;;;;;;;24.05;4.45;;;19.10;69.90;;;;;;5052041;28;20571;-73
2023/09/25 17:20:26;;;;;;;23.48;4.20;;;19.00;69.60;;;;;;5068630;28;20032;-73
2023/09/25 17:22:52;;;;;;;23.17;3.92;;;19.00;69.80;;;;;;5048844;28;20090;-73
2023/09/25 17:25:18;;;;;;;23.83;3.90;;;18.90;70.80;;;;;;5066527;28;20032;-73
2023/09/25 17:27:44;;;;;;;18.95;4.65;;;18.80;71.10;;;;;;5060481;28;20059;-73
2023/09/25 17:30:11;;;;;;;25.63;4.10;;;18.70;72.10;;;;;;5062482;28;20041;-73
2023/09/25 17:32:37;;;;;;;22.10;3.60;;;18.50;72.30;;;;;;5059669;28;20043;-72
2023/09/25 17:35:03;;;;;;;20.35;4.05;;;18.40;72.90;;;;;;5070328;28;20028;-73
2023/09/25 17:37:29;;;;;;;29.23;3.92;;;18.30;73.40;;;;;;5057185;28;20036;-73
2023/09/25 17:39:54;;;;;;;23.27;4.13;;;18.20;73.40;;;;;;5068361;28;20087;-73
2023/09/25 17:42:20;;;;;;;21.05;4.15;;;18.20;74.00;;;;;;5057474;28;20078;-73
2023/09/25 17:44:46;;;;;;;25.08;5.25;;;18.00;74.70;;;;;;5066597;28;20135;-72
2023/09/25 17:47:11;;;;;;;26.27;4.70;;;17.90;75.20;;;;;;5053258;28;20036;-73
2023/09/25 17:49:37;;;;;;;27.83;4.70;;;17.80;75.60;;;;;;5063331;28;20071;-73
2023/09/25 17:52:03;;;;;;;19.92;4.05;;;17.70;76.10;;;;;;5060425;28;20032;-73
2023/09/25 17:54:30;;;;;;;31.15;3.60;;;17.60;76.60;;;;;;5055984;28;20059;-70
2023/09/25 17:56:56;;;;;;;32.53;5.57;;;17.60;76.90;;;;;;5064855;28;20047;-71
2023/09/25 17:59:22;;;;;;;30.63;4.70;;;17.50;77.60;;;;;;5056948;28;20040;-71
2023/09/25 18:01:47;;;;;;;29.67;4.93;;;17.50;77.70;;;;;;5066985;28;20029;-72
2023/09/25 18:04:13;;;;;;;27.45;4.38;;;17.50;78.00;;;;;;5050826;28;20039;-71
2023/09/25 18:06:39;;;;;;;24.45;4.75;;;17.40;78.20;;;;;;5073728;28;20518;-71
2023/09/25 18:09:04;;;;;;;26.48;4.70;;;17.40;78.40;;;;;;5054749;28;20048;-71
2023/09/25 18:11:30;;;;;;;24.90;3.40;;;17.30;78.40;;;;;;5065817;28;21575;-71
2023/09/25 18:13:56;;;;;;;31.38;4.25;;;17.20;78.80;;;;;;5054340;28;20037;-71
2023/09/25 18:16:21;;;;;;;26.67;4.63;;;17.20;79.00;;;;;;5062128;28;20040;-71
2023/09/25 18:18:47;;;;;;;31.75;4.97;;;17.10;79.30;;;;;;5051183;28;20440;-72
2023/09/25 18:21:13;;;;;;;26.38;4.20;;;17.10;79.70;;;;;;5067255;28;20622;-72
2023/09/25 18:23:39;;;;;;;32.00;4.22;;;17.10;80.10;;;;;;5051853;28;20563;-73
2023/09/25 18:26:05;;;;;;;25.63;4.53;;;17.10;80.50;;;;;;5064919;28;20034;-73
2023/09/25 18:28:31;;;;;;;24.08;3.85;;;17.00;81.00;;;;;;5059588;28;20042;-73
2023/09/25 18:30:59;;;;;;;23.27;4.82;;;17.00;81.20;;;;;;5062142;28;20070;-73
2023/09/25 18:33:25;;;;;;;25.73;4.63;;;16.90;81.30;;;;;;5067617;28;20033;-71
2023/09/25 18:35:51;;;;;;;31.35;5.28;;;16.80;81.90;;;;;;5055379;28;20042;-71
2023/09/25 18:38:16;;;;;;;27.25;5.90;;;16.80;82.00;;;;;;5067034;28;20038;-71
2023/09/25 18:40:42;;;;;;;29.88;4.60;;;16.80;82.10;;;;;;5058450;28;20024;-72
2023/09/25 18:43:08;;;;;;;30.10;4.88;;;16.80;81.90;;;;;;5061707;28;20107;-72
2023/09/25 18:45:33;;;;;;;24.75;4.47;;;16.80;81.70;;;;;;5052926;28;20032;-72
2023/09/25 18:47:59;;;;;;;20.05;4.90;;;16.80;81.60;;;;;;5068521;28;20040;-72
2023/09/25 18:50:25;;;;;;;25.65;4.50;;;16.80;81.90;;;;;;5048531;28;20036;-73
2023/09/25 18:52:50;;;;;;;29.10;4.43;;;16.70;81.70;;;;;;5068222;28;20036;-72
2023/09/25 18:55:16;;;;;;;26.15;4.45;;;16.70;82.00;;;;;;5053154;28;20036;-72
2023/09/25 18:57:42;;;;;;;25.50;4.03;;;16.70;81.80;;;;;;5060164;28;20063;-72
2023/09/25 19:00:09;;;;;;;26.38;4.63;;;16.70;82.20;;;;;;5055121;28;20065;-72
2023/09/25 19:02:36;;;;;;;22.38;4.05;;;16.70;82.10;;;;;;5063878;28;20024;-72
2023/09/25 19:05:01;;;;;;;24.42;4.57;;;16.60;82.20;;;;;;5051564;28;20028;-72
2023/09/25 19:07:27;;;;;;;32.10;4.70;;;16.60;82.50;;;;;;5069182;28;20032;-72
2023/09/25 19:09:53;;;;;;;30.20;4.30;;;16.60;82.60;;;;;;5059924;28;20044;-73
2023/09/25 19:12:18;;;;;;;25.10;3.88;;;16.60;82.60;;;;;;5067188;28;20112;-72
2023/09/25 19:14:44;;;;;;;29.17;4.18;;;16.60;82.60;;;;;;5071074;28;20036;-72
2023/09/25 19:17:10;;;;;;;29.40;4.93;;;16.50;82.40;;;;;;5049658;28;20503;-72
2023/09/25 19:19:37;;;;;;;21.35;4.13;;;16.50;83.00;;;;;;5066367;28;20113;-71
2023/09/25 19:22:04;;;;;;;28.50;5.80;;;16.40;83.50;;;;;;5056221;28;20036;-72
2023/09/25 19:24:30;;;;;;;31.42;5.60;;;16.40;83.80;;;;;;5064550;28;20033;-71
2023/09/25 19:26:56;;;;;;;32.78;5.32;;;16.30;84.20;;;;;;5053407;28;20076;-71
2023/09/25 19:29:22;;;;;;;28.40;5.45;;;16.30;84.60;;;;;;5064416;28;20036;-72
2023/09/25 19:31:48;;;;;;;41.05;6.13;;;16.30;84.90;;;;;;5054255;28;20040;-72
2023/09/25 19:34:13;;;;;;;39.03;4.97;;;16.30;84.90;;;;;;5069805;28;20032;-72
2023/09/25 19:36:41;;;;;;;32.97;4.93;;;16.40;84.90;;;;;;5055424;28;20045;-72
2023/09/25 19:39:07;;;;;;;31.70;4.55;;;16.40;84.70;;;;;;5070376;28;20036;-72
2023/09/25 19:41:33;;;;;;;28.98;4.45;;;16.50;84.30;;;;;;5058682;28;20028;-72
2023/09/25 19:43:59;;;;;;;18.77;4.00;;;16.60;84.20;;;;;;5068996;28;20020;-72
2023/09/25 19:46:24;;;;;;;32.72;4.72;;;16.60;84.30;;;;;;5060908;28;20032;-72
2023/09/25 19:48:50;;;;;;;27.35;5.72;;;16.50;84.00;;;;;;5068855;28;20036;-72
2023/09/25 19:51:16;;;;;;;30.60;5.75;;;16.60;84.10;;;;;;5048812;28;20055;-72
2023/09/25 19:53:42;;;;;;;28.10;6.43;;;16.50;84.10;;;;;;5068267;28;20134;-72
2023/09/25 19:56:08;;;;;;;22.88;5.85;;;16.50;84.10;;;;;;5069082;28;21060;-73
2023/09/25 19:58:33;;;;;;;30.35;6.07;;;16.50;84.40;;;;;;5067406;28;20775;-72
2023/09/25 20:01:15;;;;;;;24.27;5.78;;;16.50;84.80;;;;;;5071374;28;20020;-71
2023/09/25 20:03:42;;;;;;;34.58;6.10;;;16.50;84.70;;;;;;5058335;28;20040;-72
2023/09/25 20:06:08;;;;;;;26.92;4.60;;;16.50;84.90;;;;;;5077139;28;20080;-72
2023/09/25 20:08:34;;;;;;;31.48;5.90;;;16.50;84.90;;;;;;5063339;28;20036;-72
2023/09/25 20:11:00;;;;;;;28.42;4.25;;;16.50;84.70;;;;;;5075181;28;20028;-72
2023/09/25 20:13:26;;;;;;;27.95;4.32;;;16.50;84.50;;;;;;5064183;28;20039;-73
2023/09/25 20:15:53;;;;;;;26.75;4.50;;;16.50;84.50;;;;;;5068484;28;20055;-72
2023/09/25 20:18:20;;;;;;;28.10;4.90;;;16.50;84.50;;;;;;5053880;28;20741;-72
2023/09/25 20:20:55;;;;;;;32.05;5.35;;;16.50;84.30;;;;;;5068573;28;20035;-71
2023/09/25 20:23:22;;;;;;;29.60;5.03;;;16.50;84.70;;;;;;5053888;28;20028;-71
2023/09/25 20:25:48;;;;;;;27.40;4.93;;;16.50;84.70;;;;;;5068671;28;20036;-73
2023/09/25 20:28:14;;;;;;;23.63;4.40;;;16.40;85.00;;;;;;5059842;28;20691;-73
2023/09/25 20:30:41;;;;;;;27.30;4.18;;;16.40;85.20;;;;;;5062437;28;20097;-72
2023/09/25 20:33:06;;;;;;;27.60;4.60;;;16.30;85.00;;;;;;5059993;28;20046;-71
2023/09/25 20:35:33;;;;;;;28.63;4.60;;;16.30;85.00;;;;;;5070555;28;20032;-72
2023/09/25 20:37:59;;;;;;;27.80;4.82;;;16.30;85.00;;;;;;5053178;28;20040;-72
2023/09/25 20:40:25;;;;;;;22.10;4.50;;;16.30;85.00;;;;;;5069631;28;20601;-72
2023/09/25 20:42:50;;;;;;;21.35;4.25;;;16.40;84.70;;;;;;5059660;28;20477;-72
2023/09/25 20:45:16;;;;;;;23.85;4.07;;;16.40;84.80;;;;;;5065172;28;20032;-72
2023/09/25 20:47:42;;;;;;;27.73;4.05;;;16.40;84.70;;;;;;5066991;28;20043;-72
2023/09/25 20:50:08;;;;;;;19.83;3.65;;;16.40;84.80;;;;;;5052014;28;20029;-72
2023/09/25 20:52:34;;;;;;;24.88;3.70;;;16.40;84.70;;;;;;5066211;28;20048;-71
2023/09/25 20:54:59;;;;;;;28.50;3.97;;;16.40;84.70;;;;;;5057493;28;20029;-71
2023/09/25 20:57:25;;;;;;;29.23;5.10;;;16.40;84.70;;;;;;5063945;28;21454;-71
2023/09/25 20:59:51;;;;;;;22.35;4.38;;;16.40;84.70;;;;;;5056130;28;20060;-71
2023/09/25 21:02:17;;;;;;;22.20;3.92;;;16.30;84.80;;;;;;5064835;28;20037;-71
2023/09/25 21:04:43;;;;;;;29.90;4.82;;;16.20;84.80;;;;;;5052132;28;20067;-71
2023/09/25 21:07:09;;;;;;;27.75;4.28;;;16.10;85.90;;;;;;5068337;28;20037;-71
2023/09/25 21:09:35;;;;;;;31.60;4.00;;;16.00;86.40;;;;;;5057486;28;20086;-71
2023/09/25 21:12:01;;;;;;;29.90;3.90;;;16.00;86.50;;;;;;5065754;28;20040;-72
2023/09/25 21:14:27;;;;;;;24.92;4.88;;;15.90;86.60;;;;;;5059449;28;20035;-73
2023/09/25 21:16:54;;;;;;;20.30;4.28;;;15.80;87.60;;;;;;5066001;28;20056;-73
2023/09/25 21:19:20;;;;;;;24.48;4.25;;;15.70;87.50;;;;;;5052481;28;20364;-73
2023/09/25 21:21:47;;;;;;;34.15;4.35;;;15.60;88.00;;;;;;5066543;28;20028;-72
2023/09/25 21:24:38;;;;;;;24.45;4.78;;;15.50;88.90;;;;;;5059506;28;20507;-72
2023/09/25 21:27:03;;;;;;;27.73;4.60;;;15.50;88.70;;;;;;5071091;28;20033;-72
2023/09/25 21:29:29;;;;;;;24.25;4.68;;;15.40;89.40;;;;;;5060813;28;20044;-73
2023/09/25 21:31:55;;;;;;;27.17;4.22;;;15.30;89.90;;;;;;5056352;28;20046;-72
2023/09/25 21:34:21;;;;;;;24.77;4.78;;;15.30;89.90;;;;;;5070943;28;20401;-72
2023/09/25 21:36:46;;;;;;;23.30;4.22;;;15.30;90.00;;;;;;5056260;28;20040;-72
2023/09/25 21:39:12;;;;;;;23.42;4.05;;;15.20;89.70;;;;;;5066470;28;20039;-72
2023/09/25 21:41:38;;;;;;;19.30;3.90;;;15.20;89.40;;;;;;5054690;28;20081;-72
2023/09/25 21:44:03;;;;;;;24.10;4.10;;;15.20;89.40;;;;;;5067088;28;20024;-72
2023/09/25 21:46:29;;;;;;;25.95;4.28;;;15.10;90.10;;;;;;5056918;28;20031;-72
2023/09/25 21:48:55;;;;;;;16.38;3.88;;;15.10;90.10;;;;;;5074436;28;20028;-72
2023/09/25 21:51:21;;;;;;;27.25;5.22;;;15.10;90.10;;;;;;5047780;28;20863;-72
2023/09/25 21:53:47;;;;;;;25.10;5.03;;;15.00;90.30;;;;;;5071271;28;20039;-72
2023/09/25 21:56:12;;;;;;;28.85;4.50;;;15.00;90.60;;;;;;5051835;28;20028;-72
2023/09/25 21:58:38;;;;;;;21.60;4.28;;;15.00;90.40;;;;;;5065260;28;20032;-72
2023/09/25 22:01:04;;;;;;;17.90;3.30;;;14.90;90.10;;;;;;5056379;28;20066;-72
2023/09/25 22:03:29;;;;;;;20.25;3.80;;;14.90;90.10;;;;;;5065596;28;20032;-72
2023/09/25 22:05:55;;;;;;;24.80;4.20;;;14.90;90.40;;;;;;5056477;28;21046;-72
2023/09/25 22:08:21;;;;;;;33.38;4.68;;;14.90;90.80;;;;;;5069359;28;20024;-72
2023/09/25 22:10:46;;;;;;;21.58;3.95;;;14.90;90.80;;;;;;5057678;28;20064;-72
2023/09/25 22:13:12;;;;;;;23.20;4.20;;;14.90;90.80;;;;;;5066119;28;20028;-71
2023/09/25 22:15:38;;;;;;;24.80;5.28;;;14.90;90.70;;;;;;5071615;28;20032;-72
2023/09/25 22:18:05;;;;;;;20.48;4.40;;;14.90;90.60;;;;;;5050062;28;20044;-72
2023/09/25 22:20:34;;;;;;;24.35;4.80;;;14.90;90.60;;;;;;5071001;28;20802;-72
2023/09/25 22:23:01;;;;;;;23.45;5.20;;;14.90;90.40;;;;;;5053060;28;20089;-73
2023/09/25 22:25:27;;;;;;;24.10;4.07;;;14.90;90.60;;;;;;5065321;28;20039;-72
2023/09/25 22:27:54;;;;;;;22.15;4.00;;;14.80;90.60;;;;;;5054489;28;20077;-73
2023/09/25 22:30:20;;;;;;;26.10;3.97;;;14.80;90.50;;;;;;5064026;28;20035;-72
2023/09/25 22:32:48;;;;;;;22.45;4.47;;;14.80;90.50;;;;;;5052506;28;20046;-72
2023/09/25 22:35:14;;;;;;;25.40;4.75;;;14.70;90.60;;;;;;5066894;28;20032;-72
2023/09/25 22:38:00;;;;;;;23.00;4.68;;;14.60;90.90;;;;;;5054221;28;20428;-72
2023/09/25 22:40:25;;;;;;;22.55;4.22;;;14.60;91.10;;;;;;5065799;28;20107;-72
2023/09/25 22:42:51;;;;;;;27.17;4.35;;;14.50;90.90;;;;;;5056770;28;20032;-73
2023/09/25 22:45:16;;;;;;;23.65;3.80;;;14.60;91.60;;;;;;5064268;28;20043;-73
2023/09/25 22:47:42;;;;;;;23.00;3.90;;;14.50;91.40;;;;;;5055170;28;20111;-72
2023/09/25 22:50:08;;;;;;;25.20;3.85;;;14.50;91.40;;;;;;5070318;28;20115;-72
2023/09/25 22:52:34;;;;;;;24.38;3.95;;;14.50;91.70;;;;;;5048745;28;20522;-72
2023/09/25 22:54:59;;;;;;;31.13;4.50;;;14.50;92.10;;;;;;5067123;28;20028;-73
2023/09/25 22:57:26;;;;;;;25.40;4.00;;;14.60;91.80;;;;;;5053532;28;20044;-72
2023/09/25 22:59:55;;;;;;;29.48;4.10;;;14.70;91.70;;;;;;5062113;28;20033;-73
2023/09/25 23:02:22;;;;;;;20.55;4.50;;;14.70;91.50;;;;;;5064628;28;20145;-72
2023/09/25 23:04:48;;;;;;;24.33;4.30;;;14.70;91.80;;;;;;5054114;28;20047;-72
2023/09/25 23:07:15;;;;;;;40.28;5.47;;;14.80;92.10;;;;;;5067349;28;20504;-73
2023/09/25 23:09:42;;;;;;;26.83;4.28;;;15.20;92.10;;;;;;5055233;28;21133;-72
2023/09/25 23:12:08;;;;;;;24.13;3.22;;;15.30;91.80;;;;;;5063059;28;20039;-73
2023/09/25 23:14:34;;;;;;;23.35;3.83;;;15.30;91.70;;;;;;5061485;28;20036;-73
2023/09/25 23:17:01;;;;;;;22.80;3.88;;;15.40;91.60;;;;;;5066877;28;20113;-73
2023/09/25 23:19:27;;;;;;;25.60;4.13;;;15.40;91.50;;;;;;5057059;28;20032;-72
2023/09/25 23:21:53;;;;;;;20.80;3.50;;;15.60;91.10;;;;;;5071439;28;20032;-72
2023/09/25 23:24:18;;;;;;;20.75;4.32;;;15.80;90.90;;;;;;5053254;28;20032;-72
2023/09/25 23:26:44;;;;;;;24.88;4.28;;;15.90;90.40;;;;;;5066381;28;20035;-72
2023/09/25 23:29:10;;;;;;;21.50;4.03;;;16.00;90.40;;;;;;5050211;28;20043;-72
2023/09/25 23:31:35;;;;;;;23.48;4.07;;;16.00;90.40;;;;;;5058779;28;20029;-72
2023/09/25 23:34:01;;;;;;;21.77;3.28;;;16.10;90.40;;;;;;5052564;28;20516;-72
2023/09/25 23:36:27;;;;;;;20.70;3.60;;;16.10;90.30;;;;;;5064422;28;20062;-72
2023/09/25 23:38:52;;;;;;;23.77;3.75;;;16.30;90.10;;;;;;5051821;28;20783;-70
2023/09/25 23:41:18;;;;;;;26.30;3.90;;;16.30;89.60;;;;;;5071759;28;20037;-72
2023/09/25 23:43:47;;;;;;;23.70;3.95;;;16.40;89.10;;;;;;5066232;28;20024;-71
2023/09/25 23:46:13;;;;;;;25.75;3.53;;;16.40;89.00;;;;;;5061416;28;20035;-72
2023/09/25 23:48:40;;;;;;;22.95;3.75;;;16.50;88.70;;;;;;5074408;28;20036;-72
2023/09/25 23:51:06;;;;;;;28.65;3.58;;;16.50;88.20;;;;;;5057477;28;20087;-72
2023/09/25 23:53:33;;;;;;;19.13;3.20;;;16.50;88.40;;;;;;5070231;28;20135;-72
2023/09/25 23:56:06;;;;;;;30.02;4.28;;;16.50;88.30;;;;;;5058605;28;20043;-72
2023/09/25 23:58:31;;;;;;;30.60;5.82;;;16.50;88.50;;;;;;5064259;28;20025;-72
